createdAt,value
2023-04-17T00:01:32.510Z,3.63
2023-04-17T00:03:59.427Z,4.70
2023-04-17T00:06:27.431Z,4.43
2023-04-17T00:08:54.587Z,4.60
2023-04-17T00:11:21.853Z,3.35
2023-04-17T00:13:48.659Z,4.38
2023-04-17T00:16:15.484Z,3.63
2023-04-17T00:18:42.273Z,3.35
2023-04-17T00:21:09.196Z,2.60
2023-04-17T00:23:35.991Z,2.63
2023-04-17T00:26:02.951Z,1.98
2023-04-17T00:28:29.666Z,1.80
2023-04-17T00:30:58.276Z,1.80
2023-04-17T00:33:25.333Z,2.20
2023-04-17T00:35:52.420Z,2.45
2023-04-17T00:38:19.185Z,3.15
2023-04-17T00:40:46.448Z,2.40
2023-04-17T00:43:13.278Z,1.90
2023-04-17T00:45:41.317Z,2.95
2023-04-17T00:48:09.272Z,4.40
2023-04-17T00:50:37.028Z,1.65
2023-04-17T00:53:04.190Z,2.03
2023-04-17T00:55:32.313Z,2.00
2023-04-17T00:57:59.876Z,2.00
2023-04-17T01:00:26.920Z,2.40
2023-04-17T01:02:56.720Z,1.65
2023-04-17T01:05:24.141Z,1.70
2023-04-17T01:07:51.342Z,2.20
2023-04-17T01:10:18.490Z,1.55
2023-04-17T01:12:49.078Z,1.33
2023-04-17T01:15:16.384Z,0.75
2023-04-17T01:17:43.179Z,1.63
2023-04-17T01:20:11.913Z,0.85
2023-04-17T01:22:38.702Z,0.77
2023-04-17T01:25:06.105Z,1.13
2023-04-17T01:27:32.900Z,0.85
2023-04-17T01:29:59.736Z,0.60
2023-04-17T01:32:27.119Z,0.70
2023-04-17T01:34:53.944Z,0.77
2023-04-17T01:37:20.666Z,0.55
2023-04-17T01:39:47.373Z,0.93
2023-04-17T01:42:14.213Z,0.55
2023-04-17T01:44:41.016Z,1.88
2023-04-17T01:47:07.796Z,2.15
2023-04-17T01:49:34.572Z,1.38
2023-04-17T01:52:01.469Z,1.52
2023-04-17T01:54:28.450Z,0.93
2023-04-17T01:56:55.300Z,1.65
2023-04-17T01:59:22.176Z,0.70
2023-04-17T02:01:53.474Z,1.85
2023-04-17T02:04:20.291Z,0.57
2023-04-17T02:06:47.157Z,0.70
2023-04-17T02:09:13.950Z,0.85
2023-04-17T02:11:40.768Z,1.05
2023-04-17T02:14:07.627Z,1.30
2023-04-17T02:16:34.621Z,1.92
2023-04-17T02:19:01.427Z,1.85
2023-04-17T02:21:28.361Z,1.35
2023-04-17T02:23:55.126Z,2.30
2023-04-17T02:26:21.905Z,0.50
2023-04-17T02:28:48.815Z,1.13
2023-04-17T02:31:16.455Z,0.50
2023-04-17T02:33:43.274Z,0.30
2023-04-17T02:36:10.389Z,1.20
2023-04-17T02:38:37.868Z,1.42
2023-04-17T02:41:05.484Z,0.65
2023-04-17T02:43:32.265Z,0.20
2023-04-17T02:45:59.162Z,0.77
2023-04-17T02:48:26.111Z,1.65
2023-04-17T02:50:52.958Z,0.52
2023-04-17T02:53:19.844Z,0.75
2023-04-17T02:55:46.595Z,2.42
2023-04-17T02:58:13.453Z,0.75
2023-04-17T03:00:40.803Z,1.90
2023-04-17T03:03:08.260Z,0.65
2023-04-17T03:05:35.947Z,0.50
2023-04-17T03:08:02.996Z,1.10
2023-04-17T03:10:29.777Z,0.57
2023-04-17T03:12:56.756Z,0.40
2023-04-17T03:15:23.579Z,0.68
2023-04-17T03:17:50.478Z,0.30
2023-04-17T03:20:17.976Z,0.20
2023-04-17T03:22:44.787Z,0.10
2023-04-17T03:25:11.646Z,0.35
2023-04-17T03:27:38.842Z,0.30
2023-04-17T03:30:06.380Z,0.20
2023-04-17T03:32:33.373Z,0.75
2023-04-17T03:35:00.454Z,1.25
2023-04-17T03:37:27.308Z,0.77
2023-04-17T03:39:55.706Z,1.50
2023-04-17T03:42:22.436Z,0.50
2023-04-17T03:44:49.222Z,2.22
2023-04-17T03:47:16.221Z,1.27
2023-04-17T03:49:43.085Z,0.90
2023-04-17T03:52:09.811Z,0.22
2023-04-17T03:54:36.847Z,0.20
2023-04-17T03:57:04.063Z,0.50
2023-04-17T03:59:31.584Z,0.73
2023-04-17T04:01:58.803Z,0.38
2023-04-17T04:04:26.164Z,0.40
2023-04-17T04:06:57.701Z,1.27
2023-04-17T04:09:25.748Z,0.40
2023-04-17T04:11:52.528Z,0.70
2023-04-17T04:14:19.517Z,0.30
2023-04-17T04:16:46.263Z,0.32
2023-04-17T04:19:13.290Z,0.63
2023-04-17T04:21:42.165Z,0.50
2023-04-17T04:24:09.759Z,0.68
2023-04-17T04:26:37.856Z,1.33
2023-04-17T04:29:04.735Z,0.30
2023-04-17T04:31:32.089Z,0.50
2023-04-17T04:33:59.590Z,1.10
2023-04-17T04:36:30.082Z,0.28
2023-04-17T04:39:01.023Z,1.63
2023-04-17T04:41:30.077Z,1.00
2023-04-17T04:43:56.930Z,1.17
2023-04-17T04:46:23.788Z,0.65
2023-04-17T04:48:50.760Z,0.60
2023-04-17T04:51:19.183Z,0.93
2023-04-17T04:53:46.242Z,1.73
2023-04-17T04:56:13.010Z,1.13
2023-04-17T04:58:39.938Z,0.55
2023-04-17T05:01:07.766Z,0.55
2023-04-17T05:03:34.787Z,1.73
2023-04-17T05:06:01.833Z,0.77
2023-04-17T05:08:28.620Z,2.90
2023-04-17T05:10:55.581Z,0.50
2023-04-17T05:13:22.377Z,1.90
2023-04-17T05:15:49.245Z,2.42
2023-04-17T05:18:16.121Z,5.47
2023-04-17T05:20:42.870Z,1.90
2023-04-17T05:23:09.652Z,3.78
2023-04-17T05:25:36.541Z,0.80
2023-04-17T05:28:03.241Z,1.98
2023-04-17T05:30:30.397Z,2.22
2023-04-17T05:32:58.654Z,2.20
2023-04-17T05:35:25.800Z,1.42
2023-04-17T05:37:52.984Z,2.53
2023-04-17T05:40:19.886Z,2.47
2023-04-17T05:42:46.676Z,1.98
2023-04-17T05:45:18.063Z,0.50
2023-04-17T05:47:45.229Z,1.08
2023-04-17T05:50:12.273Z,0.57
2023-04-17T05:52:39.721Z,1.67
2023-04-17T05:55:07.470Z,1.45
2023-04-17T05:57:35.973Z,1.77
2023-04-17T06:00:08.580Z,1.27
2023-04-17T06:02:35.550Z,1.52
2023-04-17T06:05:02.976Z,2.92
2023-04-17T06:07:30.143Z,2.13
2023-04-17T06:09:58.049Z,2.00
2023-04-17T06:12:25.033Z,1.30
2023-04-17T06:14:51.918Z,0.52
2023-04-17T06:17:19.147Z,1.98
2023-04-17T06:19:45.909Z,2.85
2023-04-17T06:22:12.696Z,2.08
2023-04-17T06:24:39.436Z,1.27
2023-04-17T06:27:06.433Z,1.42
2023-04-17T06:29:33.208Z,3.17
2023-04-17T06:32:01.435Z,1.17
2023-04-17T06:34:28.338Z,1.33
2023-04-17T06:36:55.473Z,1.35
2023-04-17T06:39:23.236Z,3.45
2023-04-17T06:41:50.761Z,2.85
2023-04-17T06:44:18.288Z,2.05
2023-04-17T06:46:45.400Z,1.75
2023-04-17T06:49:12.588Z,1.70
2023-04-17T06:51:39.599Z,2.70
2023-04-17T06:54:06.436Z,1.45
2023-04-17T06:56:33.281Z,3.30
2023-04-17T06:59:01.795Z,2.95
2023-04-17T07:01:31.440Z,0.90
2023-04-17T07:03:58.453Z,3.72
2023-04-17T07:06:25.259Z,2.63
2023-04-17T07:08:53.525Z,2.80
2023-04-17T07:11:22.358Z,2.85
2023-04-17T07:13:49.159Z,1.17
2023-04-17T07:16:16.422Z,4.43
2023-04-17T07:18:43.324Z,3.90
2023-04-17T07:21:10.305Z,1.77
2023-04-17T07:23:37.167Z,4.05
2023-04-17T07:26:03.941Z,0.60
2023-04-17T07:28:30.718Z,4.57
2023-04-17T07:30:59.118Z,1.63
2023-04-17T07:33:26.529Z,2.55
2023-04-17T07:35:53.922Z,2.03
2023-04-17T07:38:20.709Z,1.00
2023-04-17T07:40:47.571Z,2.35
2023-04-17T07:43:14.582Z,1.83
2023-04-17T07:45:42.064Z,1.10
2023-04-17T07:48:09.250Z,2.75
2023-04-17T07:50:36.080Z,4.65
2023-04-17T07:53:02.827Z,3.00
2023-04-17T07:55:29.721Z,4.68
2023-04-17T07:57:56.575Z,2.92
2023-04-17T08:00:24.019Z,1.02
2023-04-17T08:02:51.391Z,1.45
2023-04-17T08:05:18.823Z,1.75
2023-04-17T08:07:45.709Z,1.45
2023-04-17T08:10:12.589Z,1.00
2023-04-17T08:12:40.302Z,0.60
2023-04-17T08:15:10.007Z,0.63
2023-04-17T08:17:36.838Z,4.60
2023-04-17T08:20:11.882Z,1.13
2023-04-17T08:22:40.617Z,2.05
2023-04-17T08:25:09.450Z,0.47
2023-04-17T08:27:37.171Z,0.60
2023-04-17T08:30:11.179Z,0.68
2023-04-17T08:32:45.277Z,0.40
2023-04-17T08:35:13.698Z,0.50
2023-04-17T08:37:42.092Z,1.48
2023-04-17T08:40:09.827Z,0.35
2023-04-17T08:42:37.611Z,0.40
2023-04-17T08:45:09.640Z,2.35
2023-04-17T08:47:38.758Z,1.23
2023-04-17T08:50:09.829Z,1.13
2023-04-17T08:52:42.725Z,2.03
2023-04-17T08:55:21.115Z,0.35
2023-04-17T08:57:54.653Z,1.77
2023-04-17T09:00:31.237Z,0.40
2023-04-17T09:03:01.771Z,0.73
2023-04-17T09:05:30.592Z,1.73
2023-04-17T09:08:17.725Z,1.55
2023-04-17T09:10:49.654Z,3.22
2023-04-17T09:15:46.487Z,2.63
2023-04-17T09:18:27.584Z,5.03
2023-04-17T09:20:54.872Z,3.67
2023-04-17T09:23:23.435Z,8.48
2023-04-17T09:26:09.413Z,6.05
2023-04-17T09:28:39.721Z,3.10
2023-04-17T09:31:24.889Z,4.50
2023-04-17T09:34:09.030Z,1.67
2023-04-17T09:36:37.851Z,3.75
2023-04-17T09:39:23.769Z,6.03
2023-04-17T09:42:01.721Z,3.08
2023-04-17T09:44:34.066Z,3.55
2023-04-17T09:47:02.117Z,3.60
2023-04-17T09:49:42.159Z,1.63
2023-04-17T09:52:09.808Z,2.88
2023-04-17T09:54:39.982Z,1.98
2023-04-17T09:57:08.914Z,5.35
2023-04-17T09:59:48.113Z,4.00
2023-04-17T10:02:17.614Z,2.80
2023-04-17T10:04:45.891Z,2.70
2023-04-17T10:07:13.983Z,1.48
2023-04-17T10:09:42.024Z,3.85
2023-04-17T10:12:26.935Z,2.60
2023-04-17T10:14:54.257Z,3.67
2023-04-17T10:17:31.530Z,6.22
2023-04-17T10:20:17.752Z,14.05
2023-04-17T10:22:45.267Z,4.55
2023-04-17T10:25:12.647Z,1.38
2023-04-17T10:27:42.444Z,5.18
2023-04-17T10:30:14.169Z,1.20
2023-04-17T10:35:36.720Z,1.63
2023-04-17T10:38:08.397Z,5.60
2023-04-17T10:43:06.304Z,1.35
2023-04-17T10:45:52.933Z,2.53
2023-04-17T10:48:33.039Z,1.77
2023-04-17T10:51:01.675Z,5.70
2023-04-17T10:53:45.071Z,3.58
2023-04-17T10:56:17.539Z,3.38
2023-04-17T10:59:09.734Z,1.63
2023-04-17T11:01:48.960Z,2.53
2023-04-17T11:04:24.082Z,3.78
2023-04-17T11:06:55.506Z,1.92
2023-04-17T11:09:24.271Z,3.08
2023-04-17T11:11:51.353Z,1.42
2023-04-17T11:14:20.266Z,1.23
2023-04-17T11:16:49.903Z,1.58
2023-04-17T11:19:24.896Z,1.50
2023-04-17T11:22:01.249Z,2.60
2023-04-17T11:24:30.576Z,1.60
2023-04-17T11:27:03.550Z,3.88
2023-04-17T11:29:30.681Z,2.00
2023-04-17T11:32:00.207Z,3.40
2023-04-17T11:34:27.534Z,3.22
2023-04-17T11:36:59.639Z,3.00
2023-04-17T11:39:32.022Z,2.00
2023-04-17T11:41:58.982Z,5.65
2023-04-17T11:44:26.408Z,2.80
2023-04-17T11:46:58.727Z,2.33
2023-04-17T11:49:27.769Z,4.28
2023-04-17T11:51:58.323Z,4.18
2023-04-17T11:54:30.061Z,3.03
2023-04-17T11:59:37.754Z,5.53
2023-04-17T12:02:07.169Z,2.22
2023-04-17T12:04:35.839Z,3.25
2023-04-17T12:07:05.660Z,2.15
2023-04-17T12:09:33.942Z,4.75
2023-04-17T12:12:04.003Z,3.55
2023-04-17T12:14:31.374Z,2.00
2023-04-17T12:16:58.631Z,1.70
2023-04-17T12:19:26.849Z,3.92
2023-04-17T12:21:54.454Z,4.38
2023-04-17T12:24:24.138Z,2.03
2023-04-17T12:26:51.726Z,2.58
2023-04-17T12:29:21.971Z,4.10
2023-04-17T12:31:56.508Z,1.83
2023-04-17T12:34:24.909Z,1.40
2023-04-17T12:36:52.880Z,1.67
2023-04-17T12:39:19.709Z,1.92
2023-04-17T12:41:55.845Z,3.55
2023-04-17T12:44:22.598Z,1.67
2023-04-17T12:46:49.414Z,1.65
2023-04-17T12:49:16.476Z,3.53
2023-04-17T12:51:43.345Z,4.03
2023-04-17T12:54:12.521Z,4.60
2023-04-17T12:56:44.809Z,3.50
2023-04-17T12:59:11.651Z,4.18
2023-04-17T13:01:38.842Z,3.85
2023-04-17T13:04:06.110Z,4.55
2023-04-17T13:06:33.115Z,6.78
2023-04-17T13:08:59.892Z,4.28
2023-04-17T13:11:27.072Z,3.95
2023-04-17T13:13:53.863Z,4.18
2023-04-17T13:16:20.771Z,7.85
2023-04-17T13:18:47.475Z,6.18
2023-04-17T13:21:14.263Z,5.03
2023-04-17T13:23:41.079Z,5.57
2023-04-17T13:26:08.064Z,8.10
2023-04-17T13:28:34.852Z,4.72
2023-04-17T13:31:01.728Z,11.85
2023-04-17T13:33:28.542Z,9.43
2023-04-17T13:35:55.378Z,6.82
2023-04-17T13:38:22.210Z,6.10
2023-04-17T13:40:49.009Z,4.13
2023-04-17T13:43:15.821Z,5.78
2023-04-17T13:45:43.517Z,6.85
2023-04-17T13:48:11.466Z,5.85
2023-04-17T13:50:38.306Z,7.78
2023-04-17T13:53:05.151Z,6.10
2023-04-17T13:55:33.187Z,6.65
2023-04-17T13:58:01.157Z,8.25
2023-04-17T14:00:27.998Z,6.45
2023-04-17T14:02:54.853Z,9.70
2023-04-17T14:05:21.921Z,8.18
2023-04-17T14:07:48.731Z,5.53
2023-04-17T14:10:15.555Z,9.95
2023-04-17T14:12:42.331Z,7.25
2023-04-17T14:15:09.806Z,10.35
2023-04-17T14:17:41.026Z,7.00
2023-04-17T14:20:09.086Z,5.68
2023-04-17T14:22:35.935Z,10.70
2023-04-17T14:25:02.716Z,6.95
2023-04-17T14:27:29.872Z,5.15
2023-04-17T14:29:57.500Z,5.80
2023-04-17T14:32:25.047Z,7.57
2023-04-17T14:34:52.029Z,8.55
2023-04-17T14:37:19.801Z,6.93
2023-04-17T14:39:46.644Z,10.93
2023-04-17T14:42:13.428Z,7.30
2023-04-17T14:44:40.245Z,6.18
2023-04-17T14:47:07.851Z,9.65
2023-04-17T14:49:34.771Z,10.35
2023-04-17T14:52:01.562Z,7.15
2023-04-17T14:54:28.641Z,7.53
2023-04-17T14:56:56.176Z,6.70
2023-04-17T14:59:23.207Z,6.38
2023-04-17T15:01:50.185Z,7.80
2023-04-17T15:04:17.050Z,6.75
2023-04-17T15:06:43.950Z,7.97
2023-04-17T15:09:11.118Z,5.97
2023-04-17T15:11:38.149Z,8.95
2023-04-17T15:14:04.973Z,7.88
2023-04-17T15:16:31.867Z,11.05
2023-04-17T15:18:58.687Z,8.90
2023-04-17T15:21:26.686Z,7.00
2023-04-17T15:23:53.614Z,8.98
2023-04-17T15:26:20.627Z,5.95
2023-04-17T15:28:47.433Z,9.73
2023-04-17T15:31:14.460Z,8.88
2023-04-17T15:33:41.356Z,11.60
2023-04-17T15:36:08.316Z,7.00
2023-04-17T15:38:35.186Z,8.02
2023-04-17T15:41:03.639Z,11.10
2023-04-17T15:43:31.102Z,6.55
2023-04-17T15:45:59.595Z,14.23
2023-04-17T15:48:27.573Z,11.90
2023-04-17T15:50:54.374Z,11.32
2023-04-17T15:53:21.425Z,9.25
2023-04-17T15:55:48.461Z,9.70
2023-04-17T15:58:16.074Z,9.43
2023-04-17T16:00:42.989Z,6.45
2023-04-17T16:03:09.999Z,7.43
2023-04-17T16:05:37.004Z,7.18
2023-04-17T16:08:03.838Z,7.78
2023-04-17T16:10:30.699Z,8.10
2023-04-17T16:12:57.982Z,11.73
2023-04-17T16:15:24.898Z,10.85
2023-04-17T16:17:52.137Z,9.35
2023-04-17T16:20:18.979Z,11.52
2023-04-17T16:22:45.820Z,10.57
2023-04-17T16:25:12.660Z,11.35
2023-04-17T16:27:40.370Z,8.23
2023-04-17T16:30:09.750Z,7.65
2023-04-17T16:32:37.901Z,8.02
2023-04-17T16:35:05.164Z,8.70
2023-04-17T16:37:32.036Z,9.48
2023-04-17T16:40:04.445Z,11.15
2023-04-17T16:42:32.345Z,11.25
2023-04-17T16:44:59.204Z,8.02
2023-04-17T16:47:26.118Z,8.57
2023-04-17T16:49:52.999Z,9.90
2023-04-17T16:52:19.813Z,9.98
2023-04-17T16:54:47.234Z,12.00
2023-04-17T16:57:14.245Z,9.90
2023-04-17T16:59:41.646Z,11.07
2023-04-17T17:02:08.691Z,9.18
2023-04-17T17:04:35.759Z,9.90
2023-04-17T17:07:02.795Z,9.32
2023-04-17T17:09:30.452Z,13.15
2023-04-17T17:11:57.227Z,11.98
2023-04-17T17:14:24.131Z,12.10
2023-04-17T17:16:51.016Z,12.90
2023-04-17T17:19:17.980Z,11.85
2023-04-17T17:21:44.899Z,10.02
2023-04-17T17:24:11.805Z,12.65
2023-04-17T17:26:53.396Z,10.25
2023-04-17T17:29:20.379Z,13.65
2023-04-17T17:31:47.290Z,13.35
2023-04-17T17:36:44.000Z,19.65
2023-04-17T17:39:11.428Z,14.70
2023-04-17T17:41:38.492Z,11.55
2023-04-17T17:44:05.222Z,12.32
2023-04-17T17:46:34.334Z,16.08
2023-04-17T17:49:01.176Z,13.48
2023-04-17T17:51:28.034Z,12.13
2023-04-17T17:53:55.684Z,15.75
2023-04-17T17:56:23.597Z,17.05
2023-04-17T17:58:53.522Z,17.00
2023-04-17T18:01:22.596Z,17.20
2023-04-17T18:03:50.104Z,17.90
2023-04-17T18:06:17.112Z,14.57
2023-04-17T18:08:43.954Z,12.15
2023-04-17T18:11:10.905Z,12.00
2023-04-17T18:13:37.649Z,9.40
2023-04-17T18:16:04.756Z,10.60
2023-04-17T18:18:31.603Z,11.00
2023-04-17T18:20:58.880Z,9.32
2023-04-17T18:23:25.685Z,11.05
2023-04-17T18:25:59.542Z,10.70
2023-04-17T18:28:27.182Z,12.95
2023-04-17T18:30:54.172Z,11.10
2023-04-17T18:33:21.170Z,8.48
2023-04-17T18:35:48.168Z,10.57
2023-04-17T18:38:15.213Z,11.38
2023-04-17T18:40:41.960Z,10.80
2023-04-17T18:43:10.188Z,11.30
2023-04-17T18:45:37.110Z,13.98
2023-04-17T18:48:04.255Z,9.35
2023-04-17T18:50:31.341Z,11.52
2023-04-17T18:52:58.324Z,11.52
2023-04-17T18:55:25.212Z,10.80
2023-04-17T18:57:52.179Z,13.05
2023-04-17T19:00:19.053Z,12.20
2023-04-17T19:02:47.906Z,11.93
2023-04-17T19:05:15.042Z,10.30
2023-04-17T19:07:41.968Z,11.60
2023-04-17T19:10:09.232Z,13.80
2023-04-17T19:12:36.217Z,12.85
2023-04-17T19:15:03.802Z,11.02
2023-04-17T19:17:30.654Z,11.35
2023-04-17T19:19:57.541Z,13.25
2023-04-17T19:22:24.361Z,12.20
2023-04-17T19:24:52.947Z,12.68
2023-04-17T19:27:21.206Z,13.63
2023-04-17T19:29:48.136Z,15.38
2023-04-17T19:32:18.292Z,14.75
2023-04-17T19:34:45.199Z,11.32
2023-04-17T19:37:11.985Z,12.65
2023-04-17T19:39:38.880Z,12.60
2023-04-17T19:42:06.075Z,16.27
2023-04-17T19:44:33.186Z,13.25
2023-04-17T19:46:59.905Z,14.40
2023-04-17T19:49:26.910Z,13.20
2023-04-17T19:51:53.815Z,10.68
2023-04-17T19:54:20.675Z,12.90
2023-04-17T19:56:47.649Z,14.07
2023-04-17T19:59:15.982Z,13.57
2023-04-17T20:01:44.679Z,12.55
2023-04-17T20:04:11.799Z,11.85
2023-04-17T20:06:39.864Z,10.65
2023-04-17T20:09:06.917Z,13.00
2023-04-17T20:11:34.403Z,10.57
2023-04-17T20:14:01.228Z,8.77
2023-04-17T20:16:28.115Z,10.45
2023-04-17T20:18:56.650Z,9.80
2023-04-17T20:21:24.330Z,10.32
2023-04-17T20:23:51.273Z,10.82
2023-04-17T20:26:18.401Z,10.80
2023-04-17T20:29:03.687Z,8.70
2023-04-17T20:31:33.882Z,10.75
2023-04-17T20:34:00.789Z,9.85
2023-04-17T20:36:27.730Z,8.65
2023-04-17T20:38:54.591Z,10.35
2023-04-17T20:41:21.590Z,9.52
2023-04-17T20:43:59.115Z,9.10
2023-04-17T20:46:26.978Z,8.25
2023-04-17T20:48:54.200Z,10.30
2023-04-17T20:51:24.891Z,9.27
2023-04-17T20:53:52.624Z,12.65
2023-04-17T20:56:21.437Z,14.93
2023-04-17T20:58:48.236Z,8.27
2023-04-17T21:01:16.850Z,7.60
2023-04-17T21:03:44.083Z,9.40
2023-04-17T21:06:11.028Z,6.55
2023-04-17T21:08:37.997Z,7.32
2023-04-17T21:11:05.023Z,8.35
2023-04-17T21:13:31.901Z,8.82
2023-04-17T21:15:58.775Z,9.98
2023-04-17T21:18:25.574Z,7.45
2023-04-17T21:20:53.518Z,8.63
2023-04-17T21:23:20.479Z,5.82
2023-04-17T21:25:47.660Z,7.78
2023-04-17T21:28:14.465Z,5.13
2023-04-17T21:30:41.284Z,5.57
2023-04-17T21:33:08.034Z,7.30
2023-04-17T21:35:36.500Z,7.95
2023-04-17T21:38:03.273Z,4.85
2023-04-17T21:40:33.432Z,6.13
2023-04-17T21:43:01.135Z,8.40
2023-04-17T21:45:27.955Z,4.38
2023-04-17T21:47:54.713Z,3.63
2023-04-17T21:50:21.521Z,4.13
2023-04-17T21:52:48.426Z,4.47
2023-04-17T21:55:15.227Z,3.40
2023-04-17T21:57:42.116Z,3.95
2023-04-17T22:00:12.574Z,2.47
2023-04-17T22:02:39.510Z,3.83
2023-04-17T22:05:06.581Z,6.03
2023-04-17T22:07:38.199Z,3.70
2023-04-17T22:10:10.871Z,3.33
2023-04-17T22:12:37.739Z,3.72
2023-04-17T22:15:04.942Z,4.07
2023-04-17T22:17:31.769Z,3.55
2023-04-17T22:19:58.595Z,7.35
2023-04-17T22:22:25.393Z,3.25
2023-04-17T22:24:52.410Z,4.07
2023-04-17T22:27:19.112Z,3.20
2023-04-17T22:29:45.978Z,3.40
2023-04-17T22:32:12.751Z,2.88
2023-04-17T22:34:41.914Z,2.83
2023-04-17T22:37:09.193Z,3.85
2023-04-17T22:39:35.891Z,3.47
2023-04-17T22:42:02.724Z,2.03
2023-04-17T22:44:29.473Z,3.67
2023-04-17T22:46:56.280Z,4.22
2023-04-17T22:49:24.081Z,2.30
2023-04-17T22:51:51.225Z,1.95
2023-04-17T22:54:22.840Z,2.15
2023-04-17T22:56:49.973Z,1.60
2023-04-17T22:59:16.731Z,2.13
2023-04-17T23:01:43.546Z,3.15
2023-04-17T23:04:10.958Z,4.88
2023-04-17T23:06:37.889Z,1.95
2023-04-17T23:09:04.926Z,1.13
2023-04-17T23:11:32.620Z,1.05
2023-04-17T23:13:59.650Z,1.30
2023-04-17T23:16:26.485Z,1.23
2023-04-17T23:18:53.279Z,1.35
2023-04-17T23:21:20.031Z,1.38
2023-04-17T23:23:48.135Z,1.25
2023-04-17T23:26:15.404Z,2.22
2023-04-17T23:28:42.395Z,1.10
2023-04-17T23:31:09.396Z,1.20
2023-04-17T23:33:36.494Z,2.17
2023-04-17T23:36:03.361Z,1.65
2023-04-17T23:38:30.180Z,1.63
2023-04-17T23:40:57.103Z,1.98
2023-04-17T23:43:23.889Z,0.70
2023-04-17T23:45:50.827Z,1.40
2023-04-17T23:48:17.567Z,2.35
2023-04-17T23:50:44.494Z,1.52
2023-04-17T23:53:11.301Z,1.35
2023-04-17T23:55:38.366Z,1.65
2023-04-17T23:58:05.097Z,1.23
